Time;durP1;ratioP1;P1;durP2;ratioP2;P2;SDS_P1;SDS_P2;PMS_P1;PMS_P2;Temp;Humidity;BMP_temperature;BMP_pressure;BME280_temperature;BME280_humidity;BME280_pressure;Samples;Min_cycle;Max_cycle;Signal;HPM_P1;HPM_P2
2021/09/01 00:01:37;;;;;;;11.10;9.23;;;;;;;;;;5011689;28;20463;-91
2021/09/01 00:04:06;;;;;;;12.50;9.83;;;10.70;99.90;;;;;;5014209;28;20429;-94
2021/09/01 00:06:33;;;;;;;13.93;9.07;;;;;;;;;;5015131;28;20909;-92
2021/09/01 00:09:00;;;;;;;13.00;9.17;;;;;;;;;;5015207;28;20432;-94
2021/09/01 00:11:28;;;;;;;13.77;10.70;;;;;;;;;;5014321;28;20451;-90
2021/09/01 00:13:55;;;;;;;10.07;9.00;;;;;;;;;;5012202;28;20448;-91
2021/09/01 00:16:30;;;;;;;10.63;8.77;;;;;;;;;;5014551;28;20489;-91
2021/09/01 00:18:58;;;;;;;11.20;9.00;;;10.70;99.90;;;;;;5011044;28;20440;-92
2021/09/01 00:21:27;;;;;;;14.40;8.90;;;10.70;99.90;;;;;;5014584;28;20464;-92
2021/09/01 00:23:54;;;;;;;11.27;8.57;;;;;;;;;;5014661;28;20789;-92
2021/09/01 00:26:22;;;;;;;10.67;8.77;;;;;;;;;;5008660;28;20530;-92
2021/09/01 00:28:49;;;;;;;11.70;9.27;;;;;;;;;;5011982;28;20460;-92
2021/09/01 00:31:18;;;;;;;13.80;9.27;;;;;;;;;;5011989;28;20877;-91
2021/09/01 00:33:45;;;;;;;11.90;9.70;;;;;;;;;;5037651;28;20451;-92
2021/09/01 00:36:12;;;;;;;12.97;9.00;;;;;;;;;;5036935;28;20486;-91
2021/09/01 00:38:40;;;;;;;12.17;10.43;;;10.50;99.90;;;;;;5014487;28;20774;-91
2021/09/01 00:41:08;;;;;;;11.97;9.30;;;;;;;;;;5014410;28;20436;-91
2021/09/01 00:43:35;;;;;;;10.53;9.00;;;;;;;;;;5014139;28;20441;-94
2021/09/01 00:46:02;;;;;;;12.20;9.53;;;;;;;;;;5010405;28;20451;-94
2021/09/01 00:48:29;;;;;;;10.77;9.50;;;;;;;;;;5013560;28;20437;-92
2021/09/01 00:50:57;;;;;;;12.43;9.20;;;10.30;99.90;;;;;;5008641;28;20448;-93
2021/09/01 00:53:25;;;;;;;16.20;9.83;;;10.30;99.90;;;;;;5014001;28;20429;-91
2021/09/01 00:55:54;;;;;;;12.30;8.13;;;10.30;99.90;;;;;;5011149;28;20487;-92
2021/09/01 00:58:21;;;;;;;11.33;8.60;;;;;;;;;;5014380;28;20448;-91
2021/09/01 01:01:06;;;;;;;12.00;9.83;;;;;;;;;;5013068;28;20974;-92
2021/09/01 01:03:34;;;;;;;10.30;9.00;;;;;;;;;;5013814;28;20463;-90
2021/09/01 01:06:01;;;;;;;10.83;8.93;;;;;;;;;;5013249;28;20444;-90
2021/09/01 01:08:32;;;;;;;15.83;9.37;;;;;;;;;;5013519;28;20440;-91
2021/09/01 01:11:01;;;;;;;9.83;8.80;;;;;;;;;;5013544;28;20456;-91
2021/09/01 01:13:28;;;;;;;10.50;8.93;;;;;;;;;;5012434;28;20455;-93
2021/09/01 01:15:55;;;;;;;10.30;8.77;;;10.00;99.90;;;;;;5010156;28;20504;-92
2021/09/01 01:18:23;;;;;;;13.07;10.00;;;;;;;;;;5011894;28;20464;-93
2021/09/01 01:20:51;;;;;;;11.17;9.10;;;10.10;99.90;;;;;;5010150;28;20448;-92
2021/09/01 01:23:19;;;;;;;12.43;9.40;;;10.10;99.90;;;;;;5013253;28;20503;-90
2021/09/01 01:25:47;;;;;;;13.90;10.57;;;;;;;;;;5007695;28;20484;-93
2021/09/01 01:28:15;;;;;;;11.90;8.63;;;;;;;;;;5012601;28;20456;-91
2021/09/01 01:30:42;;;;;;;10.50;8.93;;;10.00;99.90;;;;;;5013454;28;20456;-91
2021/09/01 01:33:10;;;;;;;11.57;9.67;;;;;;;;;;5009828;28;20932;-92
2021/09/01 01:35:38;;;;;;;11.03;8.77;;;10.00;99.90;;;;;;5013171;28;20496;-91
2021/09/01 01:38:06;;;;;;;10.90;9.03;;;10.00;99.90;;;;;;5013590;28;20854;-90
2021/09/01 01:40:34;;;;;;;11.80;9.33;;;10.00;99.90;;;;;;5010192;28;20448;-92
2021/09/01 01:43:04;;;;;;;11.20;8.43;;;10.00;99.90;;;;;;5012141;28;20456;-90
2021/09/01 01:45:33;;;;;;;11.10;8.97;;;9.90;99.90;;;;;;5013231;28;20518;-90
2021/09/01 01:48:00;;;;;;;10.90;8.53;;;9.90;99.90;;;;;;5013382;28;20440;-92
2021/09/01 01:50:28;;;;;;;12.93;9.60;;;;;;;;;;5011909;28;20460;-93
2021/09/01 01:52:55;;;;;;;11.40;9.33;;;;;;;;;;5013418;28;20452;-91
2021/09/01 01:55:22;;;;;;;12.77;8.70;;;;;;;;;;5010553;28;20491;-93
2021/09/01 01:57:49;;;;;;;11.83;8.93;;;;;;;;;;5010041;28;20429;-92
2021/09/01 02:00:18;;;;;;;10.17;8.50;;;9.90;99.90;;;;;;5014255;28;20820;-92
2021/09/01 02:02:45;;;;;;;11.77;8.80;;;;;;;;;;5015511;28;20467;-91
2021/09/01 02:05:12;;;;;;;12.20;9.10;;;;;;;;;;5017069;28;20799;-91
2021/09/01 02:07:39;;;;;;;11.63;8.97;;;;;;;;;;5013737;28;20920;-90
2021/09/01 02:10:09;;;;;;;14.20;9.73;;;11.90;99.90;;;;;;5017255;28;20448;-93
2021/09/01 02:12:36;;;;;;;12.97;9.83;;;;;;;;;;5009600;28;20460;-90
2021/09/01 02:15:04;;;;;;;13.77;8.93;;;9.80;99.90;;;;;;5016765;28;20440;-93
2021/09/01 02:17:33;;;;;;;11.93;9.13;;;9.90;99.90;;;;;;5012341;28;20463;-92
2021/09/01 02:20:00;;;;;;;12.47;8.50;;;;;;;;;;5016838;28;20523;-91
2021/09/01 02:22:27;;;;;;;11.70;9.67;;;;;;;;;;5013940;28;20528;-92
2021/09/01 02:24:54;;;;;;;11.73;9.23;;;;;;;;;;5013682;28;20984;-93
2021/09/01 02:27:21;;;;;;;10.13;9.03;;;;;;;;;;5016023;28;20453;-91
2021/09/01 02:29:48;;;;;;;14.10;9.20;;;;;;;;;;5016377;28;20457;-92
2021/09/01 02:32:16;;;;;;;13.70;10.33;;;;;;;;;;5016788;28;20464;-92
2021/09/01 02:34:44;;;;;;;12.37;8.90;;;;;;;;;;5016157;28;20475;-95
2021/09/01 02:37:11;;;;;;;11.77;9.47;;;;;;;;;;5016103;28;20854;-92
2021/09/01 02:39:38;;;;;;;10.30;8.47;;;;;;;;;;5015958;28;20443;-92
2021/09/01 02:42:05;;;;;;;11.90;9.10;;;;;;;;;;5015900;28;20468;-91
2021/09/01 02:44:32;;;;;;;10.70;8.87;;;;;;;;;;5016401;28;20455;-93
2021/09/01 02:47:00;;;;;;;14.90;10.13;;;;;;;;;;5010816;28;20468;-91
2021/09/01 02:49:27;;;;;;;13.80;9.40;;;;;;;;;;5012928;28;20436;-93
2021/09/01 02:51:56;;;;;;;11.27;9.10;;;;;;;;;;5016227;28;20465;-93
2021/09/01 02:54:23;;;;;;;12.97;10.47;;;;;;;;;;5012983;28;20432;-91
2021/09/01 02:56:50;;;;;;;18.50;9.63;;;;;;;;;;5015031;28;20480;-92
2021/09/01 02:59:17;;;;;;;12.43;10.63;;;;;;;;;;5015762;28;20448;-94
2021/09/01 03:01:44;;;;;;;12.10;9.23;;;;;;;;;;5015892;28;20440;-93
2021/09/01 03:04:11;;;;;;;14.30;9.77;;;;;;;;;;5015946;28;20435;-91
2021/09/01 03:06:38;;;;;;;20.03;10.00;;;;;;;;;;5015911;28;20784;-93
2021/09/01 03:09:07;;;;;;;13.50;10.10;;;;;;;;;;5014047;28;20483;-92
2021/09/01 03:11:34;;;;;;;16.87;10.50;;;;;;;;;;5015473;28;20445;-93
2021/09/01 03:14:01;;;;;;;14.30;9.77;;;;;;;;;;5015335;28;20449;-92
2021/09/01 03:16:28;;;;;;;15.60;10.23;;;;;;;;;;5012596;28;20519;-92
2021/09/01 03:18:55;;;;;;;16.03;9.63;;;;;;;;;;5014042;28;20476;-92
2021/09/01 03:21:22;;;;;;;13.97;10.50;;;;;;;;;;5015482;28;20809;-94
2021/09/01 03:23:49;;;;;;;11.50;9.53;;;;;;;;;;5015386;28;20436;-93
2021/09/01 03:26:17;;;;;;;13.67;9.80;;;9.50;99.90;;;;;;5015544;28;20480;-91
2021/09/01 03:28:44;;;;;;;16.07;10.40;;;;;;;;;;5014982;28;20745;-92
2021/09/01 03:31:12;;;;;;;16.33;10.23;;;;;;;;;;5015168;28;20909;-93
2021/09/01 03:33:39;;;;;;;17.23;10.80;;;;;;;;;;5015596;28;20444;-92
2021/09/01 03:36:06;;;;;;;18.87;10.80;;;;;;;;;;5015128;28;20987;-91
2021/09/01 03:38:34;;;;;;;18.30;11.27;;;;;;;;;;5013193;28;20563;-92
2021/09/01 03:41:01;;;;;;;15.60;9.93;;;;;;;;;;5012182;28;20811;-94
2021/09/01 03:43:29;;;;;;;15.50;11.50;;;;;;;;;;5014545;28;20461;-92
2021/09/01 03:45:56;;;;;;;14.43;10.30;;;;;;;;;;5012263;28;20460;-92
2021/09/01 03:48:24;;;;;;;15.53;10.63;;;;;;;;;;5015329;28;20820;-93
2021/09/01 03:50:51;;;;;;;14.93;10.90;;;;;;;;;;5009943;28;20436;-93
2021/09/01 03:53:19;;;;;;;14.80;10.90;;;;;;;;;;5015189;28;20448;-94
2021/09/01 03:55:47;;;;;;;12.50;10.60;;;;;;;;;;5014667;28;20472;-91
2021/09/01 03:58:14;;;;;;;14.33;9.47;;;;;;;;;;5010515;28;20468;-91
2021/09/01 04:00:43;;;;;;;12.20;9.80;;;9.50;99.90;;;;;;5011989;28;20440;-92
2021/09/01 04:03:10;;;;;;;12.40;10.00;;;;;;;;;;5014705;28;20456;-91
2021/09/01 04:05:37;;;;;;;12.23;10.20;;;;;;;;;;5014488;28;20457;-93
2021/09/01 04:08:05;;;;;;;17.30;10.67;;;;;;;;;;5014958;28;20444;-91
2021/09/01 04:10:32;;;;;;;13.00;10.57;;;;;;;;;;5010643;28;20979;-92
2021/09/01 04:12:59;;;;;;;13.20;10.47;;;;;;;;;;5014177;28;20437;-92
2021/09/01 04:15:26;;;;;;;13.93;10.70;;;;;;;;;;5014455;28;20447;-90
2021/09/01 04:17:54;;;;;;;14.07;10.07;;;9.20;99.90;;;;;;5012233;28;20499;-92
2021/09/01 04:20:21;;;;;;;13.20;10.10;;;;;;;;;;5014798;28;20432;-92
2021/09/01 04:22:48;;;;;;;12.80;9.37;;;;;;;;;;5014313;28;20457;-92
2021/09/01 04:25:15;;;;;;;12.17;9.23;;;;;;;;;;5014175;28;20491;-91
2021/09/01 04:27:42;;;;;;;16.23;10.33;;;;;;;;;;5011008;28;20471;-92
2021/09/01 04:30:10;;;;;;;13.40;10.57;;;9.20;99.90;;;;;;5014879;28;20446;-91
2021/09/01 04:32:38;;;;;;;18.00;10.10;;;;;;;;;;5014320;28;20463;-92
2021/09/01 04:35:06;;;;;;;18.10;11.10;;;;;;;;;;5014807;28;20473;-92
2021/09/01 04:37:34;;;;;;;12.53;9.30;;;;;;;;;;5012358;28;20504;-91
2021/09/01 04:40:01;;;;;;;13.10;9.70;;;;;;;;;;5014242;28;20823;-92
2021/09/01 04:42:28;;;;;;;15.13;9.20;;;;;;;;;;5013902;28;20432;-91
2021/09/01 04:44:55;;;;;;;16.10;11.67;;;;;;;;;;5014070;28;20432;-94
2021/09/01 04:47:22;;;;;;;17.43;10.13;;;;;;;;;;5014341;28;20440;-92
2021/09/01 04:49:49;;;;;;;13.70;10.50;;;;;;;;;;5011347;28;20498;-93
2021/09/01 04:52:17;;;;;;;12.97;8.87;;;9.10;99.90;;;;;;5009491;28;20452;-91
2021/09/01 04:54:45;;;;;;;14.77;10.20;;;;;;;;;;5007391;28;20789;-91
2021/09/01 04:57:12;;;;;;;16.60;10.43;;;;;;;;;;5013317;28;20495;-93
2021/09/01 04:59:39;;;;;;;14.40;10.03;;;;;;;;;;5013869;28;20441;-92
2021/09/01 05:02:06;;;;;;;11.87;9.70;;;;;;;;;;5012217;28;20453;-91
2021/09/01 05:04:33;;;;;;;11.70;9.33;;;;;;;;;;5014470;28;20436;-90
2021/09/01 05:07:00;;;;;;;11.63;8.50;;;;;;;;;;5014610;28;20444;-92
2021/09/01 05:09:28;;;;;;;13.03;10.63;;;9.20;99.90;;;;;;5014227;28;20808;-92
2021/09/01 05:11:55;;;;;;;11.37;9.10;;;;;;;;;;5012956;28;20802;-90
2021/09/01 05:14:22;;;;;;;11.90;8.70;;;;;;;;;;5013642;28;20940;-92
2021/09/01 05:16:49;;;;;;;10.43;9.33;;;;;;;;;;5013794;28;20990;-92
2021/09/01 05:19:16;;;;;;;13.10;9.80;;;;;;;;;;5013581;28;20445;-93
2021/09/01 05:21:50;;;;;;;11.40;8.90;;;9.30;99.90;;;;;;5013669;28;20441;-91
2021/09/01 05:24:30;;;;;;;13.50;9.70;;;9.40;99.90;;;;;;5009219;28;20453;-90
2021/09/01 05:27:08;;;;;;;14.30;8.90;;;9.40;99.90;;;;;;5012288;28;20514;-91
2021/09/01 05:29:41;;;;;;;12.77;9.30;;;9.50;99.90;;;;;;5013436;28;20452;-90
2021/09/01 05:32:13;;;;;;;12.53;9.13;;;9.60;99.90;;;;;;5009404;28;20442;-91
2021/09/01 05:34:40;;;;;;;12.20;10.07;;;;;;;;;;5014580;28;20472;-90
2021/09/01 05:37:11;;;;;;;15.87;11.07;;;10.20;99.90;;;;;;5017048;28;20487;-90
2021/09/01 05:39:41;;;;;;;14.53;10.60;;;10.50;99.90;;;;;;5015707;28;20460;-90
2021/09/01 05:42:11;;;;;;;12.53;10.57;;;10.90;99.90;;;;;;5016497;28;20453;-92
2021/09/01 05:44:39;;;;;;;13.37;9.73;;;11.10;99.90;;;;;;5015253;28;20813;-90
2021/09/01 05:47:07;;;;;;;12.27;10.00;;;11.40;99.90;;;;;;5012899;28;20470;-90
2021/09/01 05:49:35;;;;;;;11.93;9.83;;;11.80;99.90;;;;;;5016952;28;20456;-92
2021/09/01 05:52:03;;;;;;;12.27;9.27;;;11.90;99.90;;;;;;5016849;28;20439;-91
2021/09/01 05:54:30;;;;;;;13.80;10.57;;;;;;;;;;5016845;28;20440;-91
2021/09/01 05:57:07;;;;;;;11.07;9.07;;;12.30;99.90;;;;;;5015675;28;20492;-92
2021/09/01 05:59:42;;;;;;;12.13;9.37;;;12.70;99.90;;;;;;5016709;28;20822;-91
2021/09/01 06:02:14;;;;;;;12.33;9.30;;;13.10;99.90;;;;;;5012535;28;20443;-92
2021/09/01 06:04:44;;;;;;;11.50;9.10;;;13.30;99.90;;;;;;5017429;28;20491;-92
2021/09/01 06:07:15;;;;;;;10.77;8.67;;;13.50;99.90;;;;;;5013354;28;20479;-91
2021/09/01 06:09:43;;;;;;;11.70;10.50;;;13.70;99.90;;;;;;5017240;28;20961;-92
2021/09/01 06:12:14;;;;;;;11.93;10.20;;;13.90;99.90;;;;;;5013242;28;20528;-93
2021/09/01 06:14:43;;;;;;;12.60;9.80;;;;;;;;;;5015153;28;20460;-93
2021/09/01 06:17:10;;;;;;;14.27;12.77;;;;;;;;;;5013957;28;20488;-94
2021/09/01 06:19:37;;;;;;;14.50;12.00;;;;;;;;;;5017523;28;20445;-92
2021/09/01 06:22:04;;;;;;;15.83;12.00;;;;;;;;;;5009401;28;20428;-94
2021/09/01 06:24:35;;;;;;;15.30;13.13;;;;;;;;;;5015233;28;20484;-95
2021/09/01 06:27:06;;;;;;;16.83;11.80;;;15.00;99.90;;;;;;5022829;28;20456;-92
2021/09/01 06:29:34;;;;;;;12.83;11.30;;;;;;;;;;5040930;28;20448;-91
2021/09/01 06:32:02;;;;;;;21.83;12.50;;;15.60;99.90;;;;;;5038695;28;20451;-92
2021/09/01 06:34:29;;;;;;;20.37;10.53;;;;;;;;;;5040276;28;20471;-94
2021/09/01 06:36:56;;;;;;;18.03;11.70;;;;;;;;;;5038520;28;20486;-92
2021/09/01 06:39:23;;;;;;;20.67;11.93;;;;;;;;;;5033077;28;20463;-90
2021/09/01 06:41:50;;;;;;;24.23;11.17;;;;;;;;;;5032592;28;20463;-93
2021/09/01 06:44:18;;;;;;;25.33;11.90;;;;;;;;;;5032910;28;20467;-94
2021/09/01 06:46:45;;;;;;;15.37;11.73;;;;;;;;;;5034995;28;20440;-92
2021/09/01 06:49:13;;;;;;;15.97;13.00;;;16.70;99.90;;;;;;5032821;28;20455;-92
2021/09/01 06:51:40;;;;;;;18.13;12.33;;;;;;;;;;5035986;28;20795;-92
2021/09/01 06:54:07;;;;;;;21.00;12.40;;;;;;;;;;5033919;28;20448;-94
2021/09/01 06:56:35;;;;;;;18.57;12.63;;;;;;;;;;5034400;28;20436;-95
2021/09/01 06:59:03;;;;;;;17.43;12.40;;;;;;;;;;5038711;28;20961;-95
2021/09/01 07:01:30;;;;;;;16.17;12.70;;;;;;;;;;5038590;28;20533;-95
2021/09/01 07:03:57;;;;;;;15.80;13.40;;;;;;;;;;5034565;28;20453;-95
2021/09/01 07:06:26;;;;;;;16.57;13.23;;;;;;;;;;5036473;28;20443;-94
2021/09/01 07:08:53;;;;;;;19.90;13.27;;;;;;;;;;5032655;28;20456;-92
2021/09/01 07:11:20;;;;;;;14.73;13.23;;;;;;;;;;5032867;28;20465;-93
2021/09/01 07:13:48;;;;;;;14.67;13.20;;;;;;;;;;5035705;28;20443;-91
2021/09/01 07:16:15;;;;;;;14.13;12.73;;;;;;;;;;5032665;28;20455;-90
2021/09/01 07:18:42;;;;;;;20.00;14.10;;;;;;;;;;5034675;28;20487;-92
2021/09/01 07:21:09;;;;;;;14.10;12.40;;;;;;;;;;5034697;28;20438;-89
2021/09/01 07:23:37;;;;;;;15.87;12.50;;;17.90;99.90;;;;;;5031942;28;20451;-90
2021/09/01 07:26:04;;;;;;;16.60;12.20;;;;;;;;;;5032252;28;20498;-92
2021/09/01 07:28:34;;;;;;;12.97;11.67;;;;;;;;;;5038368;28;20455;-89
2021/09/01 07:31:01;;;;;;;13.27;11.97;;;;;;;;;;5034862;28;20456;-92
2021/09/01 07:33:28;;;;;;;13.13;11.83;;;;;;;;;;5019902;28;20495;-93
2021/09/01 07:35:55;;;;;;;14.33;12.57;;;;;;;;;;5013116;28;20810;-90
2021/09/01 07:38:22;;;;;;;13.47;12.23;;;;;;;;;;5014674;28;20837;-90
2021/09/01 07:40:51;;;;;;;13.83;12.43;;;19.50;99.90;;;;;;5011960;28;20471;-89
2021/09/01 07:43:19;;;;;;;17.53;12.70;;;;;;;;;;5010411;28;20473;-92
2021/09/01 07:45:46;;;;;;;12.90;11.80;;;;;;;;;;5015591;28;20532;-90
2021/09/01 07:48:14;;;;;;;13.30;11.90;;;;;;;;;;5011598;28;20528;-92
2021/09/01 07:50:41;;;;;;;12.83;11.53;;;;;;;;;;5014701;28;20453;-90
2021/09/01 07:53:08;;;;;;;14.00;12.67;;;;;;;;;;5012703;28;20456;-91
2021/09/01 07:55:36;;;;;;;13.73;12.50;;;;;;;;;;5014398;28;20448;-89
2021/09/01 07:58:04;;;;;;;14.43;13.03;;;20.00;99.90;;;;;;5012852;28;20867;-91
2021/09/01 08:00:32;;;;;;;14.80;13.30;;;;;;;;;;5008745;28;20465;-93
2021/09/01 08:02:59;;;;;;;14.37;12.93;;;;;;;;;;5030253;28;20439;-90
2021/09/01 08:05:26;;;;;;;14.07;12.33;;;;;;;;;;5030725;28;20456;-90
2021/09/01 08:07:53;;;;;;;12.90;11.50;;;;;;;;;;5029729;28;20455;-89
2021/09/01 08:10:20;;;;;;;13.50;12.20;;;;;;;;;;5033789;28;20450;-89
2021/09/01 08:12:48;;;;;;;14.67;11.97;;;20.60;99.90;;;;;;5033256;28;20435;-90
2021/09/01 08:15:16;;;;;;;13.43;11.77;;;21.00;99.90;;;;;;5024269;28;20451;-90
2021/09/01 08:17:44;;;;;;;16.03;13.87;;;;;;;;;;5025970;28;20490;-91
2021/09/01 08:20:12;;;;;;;17.50;12.33;;;21.30;99.90;;;;;;5032774;28;20439;-90
2021/09/01 08:22:39;;;;;;;14.20;12.70;;;;;;;;;;5027454;28;20794;-89
2021/09/01 08:25:07;;;;;;;16.17;11.73;;;;;;;;;;5033150;28;20474;-90
2021/09/01 08:27:34;;;;;;;13.10;11.70;;;;;;;;;;5032640;28;20939;-89
2021/09/01 08:30:02;;;;;;;12.70;11.43;;;;;;;;;;5032462;28;20456;-91
2021/09/01 08:32:31;;;;;;;21.60;12.63;;;22.30;99.90;;;;;;5033925;28;20451;-89
2021/09/01 08:34:58;;;;;;;15.67;12.10;;;;;;;;;;5033759;28;20439;-90
2021/09/01 08:37:31;;;;;;;16.33;12.10;;;;;;;;;;5034241;28;20479;-94
2021/09/01 08:40:00;;;;;;;12.67;11.30;;;;;;;;;;5032199;28;20451;-93
2021/09/01 08:42:27;;;;;;;13.37;11.57;;;;;;;;;;5032794;28;20456;-90
2021/09/01 08:44:55;;;;;;;11.40;10.30;;;;;;;;;;5031705;28;20452;-90
2021/09/01 08:47:22;;;;;;;10.60;9.70;;;;;;;;;;5018190;28;20467;-90
2021/09/01 08:49:50;;;;;;;10.50;8.80;;;23.10;99.90;;;;;;5011747;28;20441;-91
2021/09/01 08:52:17;;;;;;;9.50;8.70;;;;;;;;;;5013773;28;20448;-91
2021/09/01 08:54:44;;;;;;;11.90;10.00;;;;;;;;;;5013318;28;20453;-89
2021/09/01 08:57:13;;;;;;;9.50;8.50;;;23.50;99.90;;;;;;5012784;28;20455;-92
2021/09/01 08:59:40;;;;;;;9.07;8.17;;;;;;;;;;5025187;28;20448;-88
2021/09/01 09:02:07;;;;;;;8.20;7.50;;;;;;;;;;5032213;28;20458;-90
2021/09/01 09:04:38;;;;;;;10.33;9.17;;;;;;;;;;5032848;28;20593;-88
2021/09/01 09:07:08;;;;;;;239.97;122.87;;;23.80;99.90;;;;;;5030948;28;20479;-89
2021/09/01 09:09:38;;;;;;;241.03;129.70;;;;;;;;;;5032398;28;20458;-87
2021/09/01 09:12:07;;;;;;;8.97;8.13;;;24.10;99.90;;;;;;5032679;28;20990;-89
2021/09/01 09:14:36;;;;;;;10.73;9.13;;;23.40;99.90;;;;;;5036176;28;20894;-89
2021/09/01 09:17:09;;;;;;;10.90;8.17;;;23.40;99.90;;;;;;5021886;28;20476;-87
2021/09/01 09:19:50;;;;;;;10.40;8.97;;;23.40;99.90;;;;;;5014806;28;20464;-88
2021/09/01 09:22:25;;;;;;;9.40;8.30;;;23.20;99.90;;;;;;5016694;28;20455;-89
2021/09/01 09:25:02;;;;;;;10.70;9.60;;;23.10;99.90;;;;;;5014895;28;20488;-91
2021/09/01 09:27:40;;;;;;;8.23;7.43;;;23.30;99.90;;;;;;5013295;28;20452;-89
2021/09/01 09:30:39;;;;;;;8.13;7.37;;;23.30;99.90;;;;;;4998989;28;20964;-91
2021/09/01 09:33:09;;;;;;;9.33;7.93;;;24.00;99.90;;;;;;4997813;28;20453;-89
2021/09/01 09:35:48;;;;;;;8.53;7.73;;;23.30;99.90;;;;;;5016572;28;20491;-90
2021/09/01 09:38:18;;;;;;;8.60;7.80;;;23.30;99.90;;;;;;5016781;28;20491;-91
2021/09/01 09:40:45;;;;;;;7.87;7.17;;;;;;;;;;5017056;28;20459;-91
2021/09/01 09:43:21;;;;;;;7.17;6.57;;;23.80;99.90;;;;;;5016157;28;20483;-90
2021/09/01 09:45:49;;;;;;;6.07;5.50;;;24.20;99.90;;;;;;5017255;28;20792;-90
2021/09/01 09:48:27;;;;;;;7.70;6.27;;;24.70;99.90;;;;;;5016704;28;20432;-92
2021/09/01 09:50:54;;;;;;;6.63;6.03;;;;;;;;;;5031454;28;20440;-90
2021/09/01 09:53:36;;;;;;;7.07;6.37;;;23.90;97.10;;;;;;5040760;28;20507;-91
2021/09/01 09:56:08;;;;;;;7.80;7.20;;;22.20;99.90;;;;;;5022888;28;20462;-89
2021/09/01 09:58:37;;;;;;;8.50;6.00;;;23.30;99.90;;;;;;5016735;28;20479;-90
2021/09/01 10:01:05;;;;;;;7.00;6.40;;;22.90;99.90;;;;;;5016808;28;20447;-92
2021/09/01 10:03:34;;;;;;;6.97;5.90;;;23.90;99.90;;;;;;5016968;28;20471;-92
2021/09/01 10:06:02;;;;;;;7.10;6.50;;;23.90;99.20;;;;;;5014120;28;20504;-89
2021/09/01 10:08:30;;;;;;;5.80;5.20;;;23.90;99.90;;;;;;5016057;28;20943;-91
2021/09/01 10:11:00;;;;;;;5.73;4.60;;;24.10;98.60;;;;;;5014441;28;20460;-91
2021/09/01 10:13:28;;;;;;;5.87;4.97;;;;;;;;;;4995769;28;20452;-91
2021/09/01 10:16:00;;;;;;;5.70;5.20;;;24.30;97.60;;;;;;4997084;28;20931;-92
2021/09/01 10:18:28;;;;;;;6.30;5.70;;;25.20;97.60;;;;;;5001917;28;21022;-91
2021/09/01 10:20:56;;;;;;;5.73;5.17;;;;;;;;;;5007331;28;20969;-91
2021/09/01 10:23:37;;;;;;;4.23;3.90;;;24.70;96.20;;;;;;4996652;28;20952;-91
2021/09/01 10:26:25;;;;;;;5.63;4.30;;;24.50;94.70;;;;;;4995799;28;20481;-90
2021/09/01 10:28:52;;;;;;;5.03;4.53;;;;;;;;;;4995004;28;20473;-89
2021/09/01 10:31:29;;;;;;;5.30;4.80;;;;;;;;;;5005757;28;20449;-90
2021/09/01 10:34:01;;;;;;;6.70;5.10;;;24.00;94.40;;;;;;4995590;28;20453;-87
2021/09/01 10:36:38;;;;;;;4.20;3.80;;;;;;;;;;4994043;28;20441;-88
2021/09/01 10:39:37;;;;;;;6.40;4.63;;;23.40;94.80;;;;;;4996151;28;20520;-89
2021/09/01 10:42:46;;;;;;;5.30;4.80;;;23.20;93.70;;;;;;4989287;28;20465;-89
2021/09/01 10:45:16;;;;;;;5.30;4.80;;;23.70;94.90;;;;;;4994366;28;20464;-90
2021/09/01 10:48:06;;;;;;;5.17;4.67;;;23.30;93.40;;;;;;4995364;28;20453;-90
2021/09/01 10:50:35;;;;;;;4.37;4.00;;;23.50;93.80;;;;;;4995189;28;20456;-88
2021/09/01 10:53:06;;;;;;;4.80;4.40;;;23.40;94.00;;;;;;4994736;28;21007;-91
2021/09/01 10:55:47;;;;;;;6.13;5.53;;;23.50;94.70;;;;;;4994995;28;20449;-89
2021/09/01 10:58:23;;;;;;;9.73;7.47;;;24.50;97.60;;;;;;4991918;28;20488;-90
2021/09/01 11:00:57;;;;;;;8.00;5.63;;;25.20;96.20;;;;;;4995848;28;20464;-93
2021/09/01 11:03:32;;;;;;;4.70;4.30;;;27.30;96.50;;;;;;4995700;28;20819;-91
2021/09/01 11:06:11;;;;;;;5.43;4.93;;;25.20;94.40;;;;;;4995598;28;20441;-92
2021/09/01 11:08:38;;;;;;;5.83;5.33;;;;;;;;;;4995791;28;20449;-91
2021/09/01 11:11:05;;;;;;;8.33;4.40;;;;;;;;;;4995522;28;20484;-92
2021/09/01 11:13:44;;;;;;;7.80;4.37;;;;;;;;;;4996139;28;20929;-92
2021/09/01 11:16:20;;;;;;;5.90;5.30;;;;;;;;;;4997054;28;20455;-95
2021/09/01 11:19:07;;;;;;;4.87;4.37;;;25.30;94.30;;;;;;4999141;28;20488;-93
2021/09/01 11:21:40;;;;;;;4.90;4.50;;;25.60;93.80;;;;;;5001707;28;20536;-92
2021/09/01 11:24:08;;;;;;;5.30;4.80;;;25.60;95.20;;;;;;5003542;28;20450;-91
2021/09/01 11:26:36;;;;;;;6.20;5.07;;;;;;;;;;5008935;23;20914;-93
2021/09/01 11:29:06;;;;;;;5.60;5.10;;;26.00;94.60;;;;;;5000444;28;20479;-94
2021/09/01 11:31:43;;;;;;;5.47;4.97;;;24.90;97.20;;;;;;5004569;28;20456;-94
2021/09/01 11:34:18;;;;;;;5.57;5.07;;;;;;;;;;5003268;28;20483;-94
2021/09/01 11:36:46;;;;;;;7.60;5.83;;;;;;;;;;5002549;28;20457;-92
2021/09/01 11:39:17;;;;;;;5.50;5.00;;;;;;;;;;5003498;28;20500;-92
2021/09/01 11:41:47;;;;;;;5.70;5.20;;;;;;;;;;5002250;28;20485;-93
2021/09/01 11:44:29;;;;;;;5.60;5.10;;;22.80;98.50;;;;;;5009607;28;20486;-94
2021/09/01 11:47:01;;;;;;;5.57;4.80;;;;;;;;;;4980285;28;20469;-93
2021/09/01 11:49:29;;;;;;;5.63;5.10;;;;;;;;;;4981514;28;20461;-94
2021/09/01 11:51:56;;;;;;;5.80;4.70;;;;;;;;;;4982980;28;20458;-94
2021/09/01 11:54:23;;;;;;;7.23;5.47;;;;;;;;;;4981458;28;20545;-93
2021/09/01 11:56:50;;;;;;;5.60;4.73;;;;;;;;;;5016657;23;20507;-89
2021/09/01 11:59:19;;;;;;;4.87;4.47;;;;;;;;;;5025110;28;20503;-92
2021/09/01 12:01:50;;;;;;;5.80;5.27;;;21.90;98.20;;;;;;5025792;28;20479;-92
2021/09/01 12:04:24;;;;;;;5.63;4.90;;;21.80;99.90;;;;;;5025205;28;20516;-92
2021/09/01 12:06:53;;;;;;;6.13;4.23;;;22.30;99.90;;;;;;5020276;28;20445;-92
2021/09/01 12:09:23;;;;;;;6.27;5.17;;;23.60;99.90;;;;;;5019271;28;20432;-94
2021/09/01 12:11:51;;;;;;;5.40;4.90;;;;;;;;;;5014819;28;20460;-92
2021/09/01 12:14:20;;;;;;;5.07;4.57;;;25.10;96.90;;;;;;5015695;28;20932;-93
2021/09/01 12:16:47;;;;;;;5.27;4.83;;;;;;;;;;5015620;28;20453;-90
2021/09/01 12:19:14;;;;;;;5.63;5.03;;;;;;;;;;5013949;28;20982;-91
2021/09/01 12:21:58;;;;;;;6.70;4.80;;;23.60;96.60;;;;;;5015111;28;20479;-89
2021/09/01 12:24:27;;;;;;;6.00;4.73;;;22.50;97.50;;;;;;5021250;28;20479;-92
2021/09/01 12:27:04;;;;;;;4.30;3.90;;;22.60;99.80;;;;;;5032633;28;20977;-92
2021/09/01 12:29:36;;;;;;;5.27;4.77;;;21.90;99.90;;;;;;5034452;28;20815;-94
2021/09/01 12:32:03;;;;;;;5.77;5.23;;;;;;;;;;5033779;28;20451;-94
2021/09/01 12:34:33;;;;;;;5.80;5.00;;;23.00;99.90;;;;;;5034307;28;20800;-93
2021/09/01 12:37:07;;;;;;;6.10;5.50;;;23.30;98.90;;;;;;5032828;28;20436;-92
2021/09/01 12:39:42;;;;;;;5.83;5.23;;;23.90;96.50;;;;;;5034115;28;20487;-91
2021/09/01 12:42:19;;;;;;;8.33;5.40;;;;;;;;;;5033851;28;20450;-95
2021/09/01 12:44:47;;;;;;;5.80;4.60;;;;;;;;;;5031768;28;20451;-93
2021/09/01 12:47:14;;;;;;;5.53;5.07;;;;;;;;;;5034949;28;20451;-93
2021/09/01 12:49:44;;;;;;;7.93;4.50;;;22.80;98.10;;;;;;5033556;28;20452;-92
2021/09/01 12:52:13;;;;;;;6.03;5.40;;;22.50;98.40;;;;;;5034895;28;20435;-92
2021/09/01 12:54:41;;;;;;;6.90;4.97;;;;;;;;;;5043954;23;20431;-94
2021/09/01 12:57:23;;;;;;;5.60;5.10;;;;;;;;;;5025230;28;20507;-92
2021/09/01 12:59:53;;;;;;;5.20;4.70;;;;;;;;;;5022646;28;20522;-93
2021/09/01 13:02:25;;;;;;;6.77;4.77;;;;;;;;;;5020609;28;20451;-93
2021/09/01 13:04:52;;;;;;;5.07;4.60;;;;;;;;;;5017458;28;20519;-92
2021/09/01 13:07:20;;;;;;;7.47;4.60;;;;;;;;;;5017120;28;20466;-93
2021/09/01 13:09:47;;;;;;;6.10;5.20;;;;;;;;;;5014309;28;20457;-94
2021/09/01 13:12:15;;;;;;;4.83;4.40;;;22.30;99.90;;;;;;5023083;28;20464;-92
2021/09/01 13:14:42;;;;;;;6.17;4.00;;;;;;;;;;5020788;28;20453;-93
2021/09/01 13:17:10;;;;;;;4.73;4.20;;;23.20;95.20;;;;;;5027733;23;20487;-91
2021/09/01 13:19:37;;;;;;;4.47;4.07;;;;;;;;;;5008479;28;20492;-92
2021/09/01 13:22:05;;;;;;;4.77;4.30;;;;;;;;;;5012348;28;20522;-93
2021/09/01 13:24:37;;;;;;;4.47;4.03;;;;;;;;;;5023973;28;20559;-92
2021/09/01 13:27:04;;;;;;;4.30;3.70;;;;;;;;;;5025528;23;20496;-95
2021/09/01 13:29:32;;;;;;;4.50;4.10;;;22.30;94.20;;;;;;5014853;28;20457;-91
2021/09/01 13:31:59;;;;;;;3.83;3.43;;;;;;;;;;5017526;28;20460;-96
2021/09/01 13:34:27;;;;;;;3.93;3.63;;;;;;;;;;5015378;28;20804;-91
2021/09/01 13:36:54;;;;;;;5.93;5.20;;;;;;;;;;5019412;28;20457;-91
2021/09/01 13:39:21;;;;;;;6.10;4.20;;;;;;;;;;5017636;28;20480;-94
2021/09/01 13:41:50;;;;;;;4.33;3.93;;;24.40;96.20;;;;;;5018022;28;20437;-92
2021/09/01 13:44:17;;;;;;;4.43;4.03;;;;;;;;;;5016829;28;20449;-95
2021/09/01 13:46:45;;;;;;;4.40;4.00;;;23.70;93.80;;;;;;5021741;28;20475;-93
2021/09/01 13:49:12;;;;;;;4.17;3.77;;;;;;;;;;5016596;28;20959;-95
2021/09/01 13:51:39;;;;;;;3.93;3.53;;;;;;;;;;5015013;28;20464;-90
2021/09/01 13:54:08;;;;;;;4.40;3.97;;;;;;;;;;5013859;28;20451;-92
2021/09/01 13:56:35;;;;;;;4.67;4.10;;;;;;;;;;5017180;28;20460;-93
2021/09/01 13:59:05;;;;;;;4.43;4.03;;;;;;;;;;5013766;28;20534;-92